Time;durP1;ratioP1;P1;durP2;ratioP2;P2;SDS_P1;SDS_P2;PMS_P1;PMS_P2;Temp;Humidity;BMP_temperature;BMP_pressure;BME280_temperature;BME280_humidity;BME280_pressure;Samples;Min_cycle;Max_cycle;Signal;HPM_P1;HPM_P2
2023/07/29 00:03:07;;;;;;;2.50;2.30;;;21.60;48.60;;;;;;10433844;28;20216;-75
2023/07/29 00:08:11;;;;;;;2.70;2.50;;;21.50;49.30;;;;;;10436334;28;20233;-75
2023/07/29 00:13:14;;;;;;;3.33;2.70;;;21.50;48.90;;;;;;10449964;28;20228;-76
2023/07/29 00:18:19;;;;;;;4.13;2.80;;;21.50;48.90;;;;;;10449145;28;20383;-76
2023/07/29 00:23:22;;;;;;;2.93;2.73;;;21.50;49.40;;;;;;10452355;28;20229;-76
2023/07/29 00:28:25;;;;;;;2.90;2.50;;;21.50;48.90;;;;;;10458430;28;20224;-75
2023/07/29 00:33:30;;;;;;;2.70;2.50;;;21.60;48.90;;;;;;10437555;28;20245;-76
2023/07/29 00:38:33;;;;;;;3.13;2.87;;;21.60;49.50;;;;;;10440788;28;20231;-76
2023/07/29 00:43:36;;;;;;;3.10;2.60;;;21.60;48.90;;;;;;10446363;28;20303;-76
2023/07/29 00:48:41;;;;;;;4.27;2.43;;;21.60;48.80;;;;;;10441023;28;20225;-76
2023/07/29 00:53:45;;;;;;;2.40;2.20;;;21.60;49.40;;;;;;10445045;28;20271;-76
2023/07/29 00:58:48;;;;;;;2.77;2.57;;;21.60;48.90;;;;;;10438726;28;20224;-76
2023/07/29 01:03:53;;;;;;;2.67;2.37;;;21.60;48.90;;;;;;10443005;28;20221;-76
2023/07/29 01:09:03;;;;;;;2.60;2.40;;;21.60;49.10;;;;;;10444481;28;20220;-76
2023/07/29 01:14:18;;;;;;;2.50;2.30;;;21.50;49.80;;;;;;10473330;28;20242;-76
2023/07/29 01:19:46;;;;;;;3.63;2.30;;;21.50;49.40;;;;;;10483749;28;20314;-76
2023/07/29 01:24:50;;;;;;;2.43;2.23;;;21.60;49.10;;;;;;10484286;28;20228;-76
2023/07/29 01:29:54;;;;;;;3.20;2.57;;;21.60;48.60;;;;;;10480285;28;20295;-76
2023/07/29 01:35:03;;;;;;;2.50;2.30;;;21.70;48.30;;;;;;10474698;28;20633;-76
2023/07/29 01:40:11;;;;;;;3.10;2.20;;;21.70;48.60;;;;;;10478875;28;20685;-76
2023/07/29 01:45:14;;;;;;;2.20;2.03;;;21.70;48.00;;;;;;10476128;28;20312;-76
2023/07/29 01:50:17;;;;;;;2.70;2.30;;;21.70;47.60;;;;;;10471984;28;21051;-76
2023/07/29 01:55:22;;;;;;;2.93;2.40;;;21.70;47.50;;;;;;10483523;28;20775;-76
2023/07/29 02:00:25;;;;;;;2.50;2.30;;;21.60;47.50;;;;;;10484013;28;20232;-76
2023/07/29 02:05:28;;;;;;;5.07;2.50;;;21.60;47.50;;;;;;10474387;28;20224;-75
2023/07/29 02:10:44;;;;;;;3.77;2.60;;;21.50;47.30;;;;;;10482702;28;20303;-76
2023/07/29 02:15:48;;;;;;;3.10;2.53;;;21.30;47.70;;;;;;10480936;28;20244;-76
2023/07/29 02:20:51;;;;;;;2.10;2.00;;;21.30;47.60;;;;;;10474682;28;20728;-76
2023/07/29 02:25:55;;;;;;;2.13;2.03;;;21.30;47.60;;;;;;10477851;28;20323;-76
2023/07/29 02:31:13;;;;;;;2.30;2.10;;;21.20;47.70;;;;;;10482257;28;20254;-76
2023/07/29 02:36:17;;;;;;;3.87;2.30;;;21.20;47.60;;;;;;10433950;28;20224;-76
2023/07/29 02:41:21;;;;;;;3.20;2.20;;;21.20;47.30;;;;;;10438037;28;20954;-76
2023/07/29 02:46:24;;;;;;;3.43;2.30;;;21.20;47.30;;;;;;10431630;28;20243;-76
2023/07/29 02:51:27;;;;;;;3.40;2.67;;;21.20;47.20;;;;;;10436227;28;20794;-76
2023/07/29 02:56:32;;;;;;;2.90;2.60;;;21.20;47.30;;;;;;10437025;28;20723;-77
2023/07/29 03:01:36;;;;;;;2.60;2.23;;;21.10;47.10;;;;;;10434351;28;20307;-76
2023/07/29 03:06:39;;;;;;;4.67;2.37;;;21.10;47.20;;;;;;10435780;28;20310;-76
2023/07/29 03:11:44;;;;;;;3.37;2.60;;;21.10;47.10;;;;;;10434107;28;20231;-75
2023/07/29 03:16:47;;;;;;;2.83;2.23;;;21.10;47.40;;;;;;10446875;28;20225;-75
2023/07/29 03:21:50;;;;;;;5.40;2.60;;;21.00;47.20;;;;;;10434331;28;20222;-75
2023/07/29 03:26:55;;;;;;;2.37;2.10;;;21.00;47.20;;;;;;10434139;28;20825;-75
2023/07/29 03:31:58;;;;;;;2.57;2.37;;;21.00;47.30;;;;;;10428218;28;20216;-75
2023/07/29 03:37:02;;;;;;;2.97;2.73;;;21.00;47.20;;;;;;10446281;28;20323;-75
2023/07/29 03:42:06;;;;;;;2.83;2.63;;;21.00;47.30;;;;;;10479805;28;20224;-75
2023/07/29 03:47:10;;;;;;;2.83;2.40;;;21.00;47.70;;;;;;10479994;28;20311;-75
2023/07/29 03:52:13;;;;;;;2.53;2.40;;;20.90;47.40;;;;;;10474049;28;20236;-77
2023/07/29 03:57:18;;;;;;;2.77;2.57;;;20.90;47.30;;;;;;10478100;28;20238;-77
2023/07/29 04:02:21;;;;;;;2.50;2.30;;;20.90;47.80;;;;;;10477167;28;20255;-75
2023/07/29 04:07:24;;;;;;;4.40;3.00;;;20.90;47.60;;;;;;10485173;28;20239;-75
2023/07/29 04:12:29;;;;;;;2.93;2.53;;;20.90;47.80;;;;;;10476023;28;20252;-75
2023/07/29 04:17:32;;;;;;;2.50;2.27;;;20.90;48.10;;;;;;10474534;28;20220;-75
2023/07/29 04:22:35;;;;;;;2.23;2.10;;;20.90;47.90;;;;;;10477717;28;20221;-75
2023/07/29 04:27:40;;;;;;;3.20;2.87;;;20.90;48.00;;;;;;10472252;28;20240;-75
2023/07/29 04:32:44;;;;;;;2.80;2.60;;;20.90;48.30;;;;;;10481965;28;20222;-75
2023/07/29 04:37:48;;;;;;;3.40;2.47;;;20.90;48.10;;;;;;10484159;28;20270;-75
2023/07/29 04:42:53;;;;;;;2.87;2.50;;;20.90;48.20;;;;;;10476482;28;20306;-77
2023/07/29 04:47:56;;;;;;;4.03;2.87;;;20.90;48.40;;;;;;10481591;28;20228;-77
2023/07/29 04:53:02;;;;;;;3.23;2.93;;;20.90;48.10;;;;;;10487775;28;20227;-74
2023/07/29 04:58:07;;;;;;;3.53;2.70;;;20.90;48.20;;;;;;10484028;28;20256;-77
2023/07/29 05:03:10;;;;;;;2.93;2.73;;;20.90;48.70;;;;;;10476052;28;20220;-77
2023/07/29 05:08:13;;;;;;;2.97;2.67;;;20.80;48.40;;;;;;10487690;28;20749;-77
2023/07/29 05:13:18;;;;;;;3.03;2.73;;;20.80;48.80;;;;;;10486621;28;20229;-77
2023/07/29 05:18:21;;;;;;;5.00;3.23;;;20.80;49.40;;;;;;10482991;28;20580;-77
2023/07/29 05:23:24;;;;;;;3.03;2.77;;;20.80;49.40;;;;;;10479815;28;20328;-77
2023/07/29 05:28:29;;;;;;;5.90;3.07;;;20.80;49.50;;;;;;10482858;28;20228;-77
2023/07/29 05:33:32;;;;;;;3.90;3.13;;;20.90;49.90;;;;;;10477117;28;20255;-74
2023/07/29 05:38:35;;;;;;;3.27;3.03;;;20.90;49.80;;;;;;10457165;28;20232;-74
2023/07/29 05:43:42;;;;;;;3.23;3.00;;;20.90;50.30;;;;;;10435700;28;20221;-77
2023/07/29 05:48:45;;;;;;;4.53;3.03;;;21.00;51.20;;;;;;10439843;28;20226;-77
2023/07/29 05:53:49;;;;;;;2.80;2.60;;;21.10;50.80;;;;;;10426514;28;20300;-77
2023/07/29 05:58:53;;;;;;;3.30;3.00;;;21.10;51.00;;;;;;10472229;28;20224;-74
2023/07/29 06:03:56;;;;;;;4.20;2.90;;;21.20;51.70;;;;;;10471066;28;20240;-75
2023/07/29 06:08:59;;;;;;;3.53;2.70;;;21.30;51.40;;;;;;10476992;28;20901;-74
2023/07/29 06:14:04;;;;;;;2.97;2.73;;;21.40;51.50;;;;;;10473461;28;20231;-74
2023/07/29 06:19:08;;;;;;;3.70;2.60;;;21.50;52.20;;;;;;10473211;28;20244;-74
2023/07/29 06:24:11;;;;;;;2.80;2.50;;;21.50;51.50;;;;;;10475682;28;20228;-77
2023/07/29 06:29:16;;;;;;;2.30;2.20;;;21.60;51.70;;;;;;10479512;28;20233;-77
2023/07/29 06:34:19;;;;;;;3.53;2.70;;;21.60;51.70;;;;;;10475043;28;20229;-75
2023/07/29 06:39:22;;;;;;;2.93;2.53;;;21.70;51.20;;;;;;10474904;28;20230;-76
2023/07/29 06:44:27;;;;;;;2.90;2.20;;;21.70;51.40;;;;;;10473573;28;20224;-77
2023/07/29 06:49:30;;;;;;;2.97;2.70;;;21.70;51.70;;;;;;10477405;28;20235;-77
2023/07/29 06:54:33;;;;;;;2.90;2.37;;;21.70;51.20;;;;;;10481097;28;20220;-77
2023/07/29 06:59:38;;;;;;;2.53;2.40;;;21.70;51.30;;;;;;10477181;28;20255;-76
2023/07/29 07:04:42;;;;;;;3.17;2.40;;;21.60;51.60;;;;;;10481039;28;20234;-76
2023/07/29 07:09:45;;;;;;;2.40;2.20;;;21.70;51.50;;;;;;10438201;28;20255;-76
2023/07/29 07:14:50;;;;;;;2.80;2.60;;;21.70;51.90;;;;;;10432168;28;20228;-77
2023/07/29 07:19:53;;;;;;;2.70;2.50;;;21.70;52.50;;;;;;10435585;28;20264;-77
2023/07/29 07:24:56;;;;;;;2.93;2.70;;;21.70;52.20;;;;;;10428681;28;20408;-76
2023/07/29 07:30:01;;;;;;;2.70;2.50;;;21.70;52.40;;;;;;10427511;28;20690;-76
2023/07/29 07:35:04;;;;;;;4.37;2.73;;;21.80;52.50;;;;;;10432009;28;20607;-78
2023/07/29 07:40:08;;;;;;;4.77;2.90;;;21.80;52.30;;;;;;10435439;28;20315;-77
2023/07/29 07:45:13;;;;;;;5.17;2.90;;;21.80;52.60;;;;;;10434694;28;21197;-76
2023/07/29 07:50:16;;;;;;;2.60;2.40;;;21.80;53.30;;;;;;10430711;28;20225;-77
2023/07/29 07:55:19;;;;;;;2.60;2.40;;;21.90;53.20;;;;;;10429141;28;20229;-77
2023/07/29 08:00:24;;;;;;;2.70;2.50;;;21.90;53.80;;;;;;10440823;28;20232;-77
2023/07/29 08:05:27;;;;;;;3.57;2.50;;;22.10;54.70;;;;;;10438126;28;20454;-77
2023/07/29 08:10:30;;;;;;;5.23;2.57;;;22.20;53.40;;;;;;10445163;28;20221;-77
2023/07/29 08:15:35;;;;;;;3.60;2.93;;;22.30;53.30;;;;;;10443274;28;20229;-77
2023/07/29 08:20:38;;;;;;;3.57;2.80;;;22.30;53.60;;;;;;10465268;28;20229;-79
2023/07/29 08:25:41;;;;;;;3.33;3.03;;;22.40;52.40;;;;;;10470716;28;20231;-78
2023/07/29 08:30:46;;;;;;;8.67;3.20;;;22.30;52.50;;;;;;10451018;28;20227;-78
2023/07/29 08:35:50;;;;;;;3.10;2.80;;;22.30;53.80;;;;;;10445589;28;20224;-78
2023/07/29 08:41:03;;;;;;;3.60;2.70;;;22.30;53.80;;;;;;10442655;28;20220;-77
2023/07/29 08:46:08;;;;;;;3.00;2.70;;;22.40;53.80;;;;;;10442757;28;20225;-78
2023/07/29 08:51:13;;;;;;;2.77;2.57;;;22.50;54.20;;;;;;10431639;28;20311;-77
2023/07/29 08:56:17;;;;;;;3.43;2.70;;;22.60;53.70;;;;;;10448909;28;20282;-76
2023/07/29 09:01:21;;;;;;;2.90;2.70;;;22.80;53.70;;;;;;10429736;28;20233;-76
2023/07/29 09:06:27;;;;;;;2.70;2.50;;;22.90;53.40;;;;;;10437799;28;20229;-77
2023/07/29 09:11:31;;;;;;;2.70;2.50;;;23.00;53.50;;;;;;10438154;28;20216;-79
2023/07/29 09:16:36;;;;;;;2.80;2.60;;;23.10;53.60;;;;;;10437239;28;20316;-79
2023/07/29 09:21:40;;;;;;;3.20;2.60;;;23.30;53.80;;;;;;10445276;28;20225;-78
2023/07/29 09:26:50;;;;;;;3.13;2.87;;;23.40;53.00;;;;;;10448573;28;20866;-77
2023/07/29 09:31:54;;;;;;;2.80;2.60;;;23.50;53.20;;;;;;10430535;28;20222;-76
2023/07/29 09:36:58;;;;;;;3.00;2.80;;;23.60;53.10;;;;;;10434633;28;20228;-77
2023/07/29 09:42:01;;;;;;;4.00;2.80;;;23.70;53.30;;;;;;10451563;28;20228;-78
2023/07/29 09:47:06;;;;;;;3.10;2.90;;;23.90;53.00;;;;;;10437651;28;20229;-77
2023/07/29 09:52:10;;;;;;;3.10;2.90;;;24.00;52.60;;;;;;10454437;28;20402;-76
2023/07/29 09:57:15;;;;;;;3.13;2.93;;;24.10;52.30;;;;;;10468626;28;20232;-77
2023/07/29 10:02:21;;;;;;;3.43;3.23;;;24.30;52.50;;;;;;10452484;28;20700;-76
2023/07/29 10:07:25;;;;;;;3.23;3.03;;;24.40;52.60;;;;;;10428091;28;20232;-77
2023/07/29 10:12:31;;;;;;;3.57;3.27;;;24.50;52.70;;;;;;10430755;28;20226;-78
2023/07/29 10:17:37;;;;;;;3.47;3.17;;;24.70;51.40;;;;;;10431868;28;20681;-76
2023/07/29 10:22:44;;;;;;;3.33;3.10;;;24.90;51.50;;;;;;10423005;28;20225;-77
2023/07/29 10:27:50;;;;;;;3.30;3.10;;;25.00;51.30;;;;;;10427740;28;20947;-77
2023/07/29 10:32:58;;;;;;;3.70;3.40;;;25.10;51.10;;;;;;10417098;28;20224;-76
2023/07/29 10:38:04;;;;;;;3.70;3.40;;;25.20;50.10;;;;;;10459314;28;20239;-76
2023/07/29 10:43:11;;;;;;;3.43;3.00;;;25.20;50.20;;;;;;10466897;28;20700;-78
2023/07/29 10:48:43;;;;;;;3.63;3.33;;;25.30;49.80;;;;;;10465659;28;20314;-75
2023/07/29 10:53:46;;;;;;;3.40;3.10;;;25.30;50.50;;;;;;10463400;28;20225;-74
2023/07/29 10:58:49;;;;;;;3.87;3.27;;;25.40;50.40;;;;;;10459927;28;20232;-74
2023/07/29 11:04:24;;;;;;;3.20;2.90;;;25.50;50.10;;;;;;10468654;28;20224;-74
2023/07/29 11:09:41;;;;;;;2.90;2.70;;;25.60;49.10;;;;;;10467736;28;20229;-75
2023/07/29 11:14:44;;;;;;;2.70;2.57;;;25.60;48.70;;;;;;10465057;28;20234;-74
2023/07/29 11:19:50;;;;;;;2.57;2.37;;;25.70;49.60;;;;;;10462872;28;20316;-74
2023/07/29 11:24:53;;;;;;;2.80;2.60;;;25.80;49.10;;;;;;10467082;28;20226;-74
2023/07/29 11:29:58;;;;;;;2.80;2.60;;;26.00;49.10;;;;;;10466520;28;20228;-77
2023/07/29 11:35:08;;;;;;;2.50;2.30;;;26.20;48.70;;;;;;10424813;28;20225;-76
2023/07/29 11:40:15;;;;;;;2.87;2.47;;;26.30;45.80;;;;;;10437365;28;20675;-75
2023/07/29 11:45:19;;;;;;;3.30;3.10;;;26.40;46.60;;;;;;10443163;28;20619;-75
2023/07/29 11:50:23;;;;;;;2.70;2.50;;;26.40;47.50;;;;;;10419637;28;20237;-75
2023/07/29 11:55:27;;;;;;;6.70;6.20;;;26.50;47.00;;;;;;10429007;28;20233;-75
2023/07/29 12:00:30;;;;;;;23.20;13.40;;;26.60;47.00;;;;;;10425489;28;20311;-75
2023/07/29 12:05:35;;;;;;;7.67;4.97;;;26.70;46.80;;;;;;10426558;28;20243;-75
2023/07/29 12:10:39;;;;;;;92.40;18.47;;;27.00;45.90;;;;;;10425034;28;20217;-75
2023/07/29 12:15:43;;;;;;;13.07;7.23;;;27.10;45.80;;;;;;10427783;28;20236;-75
2023/07/29 12:20:48;;;;;;;10.77;9.47;;;27.20;44.90;;;;;;10421955;28;20317;-75
2023/07/29 12:25:52;;;;;;;10.20;7.57;;;27.30;43.10;;;;;;10425421;28;20228;-74
2023/07/29 12:30:56;;;;;;;5.40;4.90;;;27.30;44.30;;;;;;10419933;28;20729;-77
2023/07/29 12:36:01;;;;;;;4.33;3.70;;;27.30;44.30;;;;;;10430256;28;20239;-76
2023/07/29 12:41:04;;;;;;;3.00;2.80;;;27.30;43.60;;;;;;10427052;28;20235;-76
2023/07/29 12:46:07;;;;;;;2.77;2.37;;;27.30;43.60;;;;;;10420134;28;20237;-75
2023/07/29 12:51:12;;;;;;;3.70;3.47;;;27.30;42.60;;;;;;10428895;28;20279;-76
2023/07/29 12:56:15;;;;;;;2.50;2.27;;;27.20;42.40;;;;;;10428697;28;20229;-76
2023/07/29 13:01:19;;;;;;;14.77;13.87;;;27.00;43.80;;;;;;10416212;28;20233;-75
2023/07/29 13:06:24;;;;;;;3.83;2.10;;;26.80;44.80;;;;;;10430096;28;20243;-77
2023/07/29 13:11:27;;;;;;;2.50;2.30;;;26.70;44.50;;;;;;10421587;28;20231;-77
2023/07/29 13:16:30;;;;;;;2.50;2.30;;;26.60;44.80;;;;;;10420919;28;20229;-76
2023/07/29 13:21:35;;;;;;;3.00;2.30;;;26.50;44.10;;;;;;10417426;28;20276;-76
2023/07/29 13:26:38;;;;;;;14.87;14.07;;;26.50;43.90;;;;;;10417975;28;20241;-76
2023/07/29 13:31:42;;;;;;;1.87;1.77;;;26.40;44.10;;;;;;10424042;28;20749;-76
2023/07/29 13:36:46;;;;;;;1.90;1.80;;;26.40;43.30;;;;;;10422908;28;20229;-76
2023/07/29 13:41:50;;;;;;;2.00;1.80;;;26.30;42.80;;;;;;10421559;28;20236;-76
2023/07/29 13:46:53;;;;;;;1.87;1.77;;;26.30;43.70;;;;;;10416317;28;20772;-77
2023/07/29 13:51:58;;;;;;;1.93;1.83;;;26.30;43.60;;;;;;10418857;28;20221;-76
2023/07/29 13:57:01;;;;;;;1.60;1.50;;;26.20;42.90;;;;;;10417735;28;20937;-76
2023/07/29 14:02:05;;;;;;;1.70;1.60;;;26.10;43.60;;;;;;10424296;28;20229;-77
2023/07/29 14:07:09;;;;;;;1.50;1.40;;;26.10;42.70;;;;;;10427615;28;20240;-77
2023/07/29 14:12:14;;;;;;;3.87;1.77;;;26.00;43.10;;;;;;10424500;28;20240;-77
2023/07/29 14:17:18;;;;;;;1.50;1.40;;;26.00;43.50;;;;;;10427451;28;20753;-77
2023/07/29 14:22:22;;;;;;;1.23;1.23;;;26.10;43.90;;;;;;10421138;28;20233;-77
2023/07/29 14:27:25;;;;;;;1.70;1.60;;;26.10;43.30;;;;;;10418674;28;20258;-76
2023/07/29 14:32:28;;;;;;;1.60;1.50;;;26.00;43.90;;;;;;10429116;28;20704;-77
2023/07/29 14:37:33;;;;;;;1.70;1.60;;;26.00;43.90;;;;;;10427541;28;20233;-77
2023/07/29 14:42:36;;;;;;;1.90;1.80;;;26.10;43.70;;;;;;10415301;28;20217;-75
2023/07/29 14:47:39;;;;;;;1.50;1.40;;;26.10;44.30;;;;;;10413371;28;20280;-77
2023/07/29 14:52:44;;;;;;;1.10;1.10;;;26.10;43.20;;;;;;10410503;28;20312;-77
2023/07/29 14:57:47;;;;;;;1.50;1.40;;;26.30;43.20;;;;;;10415518;28;20230;-77
2023/07/29 15:02:50;;;;;;;1.50;1.40;;;26.40;42.90;;;;;;10418199;28;20221;-77
2023/07/29 15:07:55;;;;;;;1.30;1.20;;;26.50;41.90;;;;;;10418731;28;20230;-77
2023/07/29 15:12:58;;;;;;;1.77;1.50;;;26.60;41.00;;;;;;10406302;28;20229;-76
2023/07/29 15:18:01;;;;;;;1.70;1.60;;;26.80;42.00;;;;;;10423984;28;20940;-77
2023/07/29 15:23:06;;;;;;;1.53;1.43;;;26.90;42.20;;;;;;10458857;28;20220;-77
2023/07/29 15:28:10;;;;;;;1.30;1.30;;;27.00;40.80;;;;;;10466791;28;20228;-77
2023/07/29 15:33:13;;;;;;;1.60;1.50;;;27.00;40.80;;;;;;10450246;28;20224;-76
2023/07/29 15:38:18;;;;;;;1.47;1.37;;;27.00;40.80;;;;;;10458670;28;20248;-76
2023/07/29 15:43:21;;;;;;;1.53;1.43;;;26.90;39.80;;;;;;10451912;28;20224;-75
2023/07/29 15:48:24;;;;;;;1.40;1.30;;;26.80;40.80;;;;;;10455839;28;20236;-76
2023/07/29 15:53:29;;;;;;;1.70;1.60;;;26.90;41.40;;;;;;10457926;28;20859;-76
2023/07/29 15:58:32;;;;;;;1.80;1.70;;;26.90;40.30;;;;;;10463136;28;20715;-76
2023/07/29 16:03:36;;;;;;;1.93;1.83;;;27.00;40.80;;;;;;10459372;28;20230;-76
2023/07/29 16:08:41;;;;;;;2.00;1.90;;;26.90;40.30;;;;;;10462476;28;20310;-76
2023/07/29 16:13:44;;;;;;;1.80;1.70;;;26.60;39.70;;;;;;10459479;28;20231;-76
2023/07/29 16:18:47;;;;;;;1.83;1.73;;;26.40;41.20;;;;;;10462540;28;20231;-76
2023/07/29 16:23:52;;;;;;;1.90;1.80;;;26.20;41.00;;;;;;10463865;28;20715;-76
2023/07/29 16:28:55;;;;;;;2.13;1.90;;;26.10;40.80;;;;;;10464965;28;20232;-76
2023/07/29 16:33:59;;;;;;;2.00;1.90;;;25.90;41.50;;;;;;10469314;28;20752;-76
2023/07/29 16:39:04;;;;;;;1.93;1.83;;;25.90;41.50;;;;;;10469332;28;20611;-76
2023/07/29 16:44:07;;;;;;;1.97;1.87;;;25.90;40.50;;;;;;10466641;28;21230;-76
2023/07/29 16:49:10;;;;;;;1.90;1.80;;;25.80;40.70;;;;;;10464395;28;20228;-76
2023/07/29 16:54:25;;;;;;;2.10;1.60;;;25.70;40.90;;;;;;10468721;28;20700;-76
2023/07/29 16:59:28;;;;;;;1.90;1.80;;;25.50;40.60;;;;;;10463408;28;20233;-76
2023/07/29 17:04:31;;;;;;;1.70;1.60;;;25.40;41.20;;;;;;10466518;28;20252;-76
2023/07/29 17:09:36;;;;;;;2.30;2.10;;;25.30;41.10;;;;;;10465402;28;20236;-76
2023/07/29 17:14:39;;;;;;;2.80;2.60;;;25.10;41.00;;;;;;10468064;28;20605;-77
2023/07/29 17:19:44;;;;;;;3.13;2.50;;;25.00;40.90;;;;;;10462813;28;20229;-76
2023/07/29 17:24:49;;;;;;;2.00;1.90;;;24.90;41.20;;;;;;10464899;28;20225;-75
2023/07/29 17:29:52;;;;;;;2.00;1.90;;;24.80;41.60;;;;;;10463435;28;20232;-76
2023/07/29 17:34:55;;;;;;;2.33;2.23;;;24.70;42.10;;;;;;10463827;28;20726;-75
2023/07/29 17:40:00;;;;;;;2.90;2.20;;;24.50;42.20;;;;;;10467139;28;20225;-76
2023/07/29 17:45:03;;;;;;;2.30;2.10;;;24.40;42.90;;;;;;10426441;28;20390;-76
2023/07/29 17:50:07;;;;;;;3.67;2.10;;;24.30;42.90;;;;;;10422862;28;20279;-76
2023/07/29 17:55:12;;;;;;;3.07;2.03;;;24.10;43.20;;;;;;10423174;28;20263;-77
2023/07/29 18:00:15;;;;;;;2.10;2.00;;;23.90;43.70;;;;;;10422810;28;20235;-76
2023/07/29 18:05:18;;;;;;;2.93;2.20;;;23.80;43.90;;;;;;10424191;28;20232;-76
2023/07/29 18:10:23;;;;;;;2.40;2.20;;;23.60;43.90;;;;;;10429533;28;20229;-76
2023/07/29 18:15:27;;;;;;;2.40;2.20;;;23.50;44.30;;;;;;10422316;28;20709;-76
2023/07/29 18:20:30;;;;;;;2.40;2.20;;;23.40;44.10;;;;;;10424598;28;20234;-76
2023/07/29 18:25:35;;;;;;;2.20;1.83;;;23.40;44.20;;;;;;10424689;28;20233;-76
2023/07/29 18:30:38;;;;;;;2.07;1.90;;;23.40;44.50;;;;;;10417592;28;20236;-76
2023/07/29 18:35:42;;;;;;;2.13;1.97;;;23.40;44.10;;;;;;10425119;28;20225;-76
2023/07/29 18:40:46;;;;;;;1.90;1.80;;;23.40;44.20;;;;;;10416568;28;20227;-76
2023/07/29 18:45:50;;;;;;;2.30;2.10;;;23.40;44.30;;;;;;10422831;28;20701;-76
2023/07/29 18:50:53;;;;;;;2.30;1.83;;;23.40;44.10;;;;;;10417665;28;20243;-76
2023/07/29 18:55:57;;;;;;;2.87;1.90;;;23.30;44.10;;;;;;10417922;28;20233;-76
2023/07/29 19:01:00;;;;;;;2.10;1.90;;;23.30;44.30;;;;;;10423028;28;20222;-76
2023/07/29 19:06:04;;;;;;;1.77;1.67;;;23.30;44.10;;;;;;10428483;28;20344;-77
2023/07/29 19:11:08;;;;;;;1.97;1.87;;;23.30;44.20;;;;;;10422671;28;20221;-76
2023/07/29 19:16:12;;;;;;;2.10;2.00;;;23.30;44.40;;;;;;10417603;28;20327;-76
2023/07/29 19:21:18;;;;;;;2.33;2.13;;;23.40;44.40;;;;;;10413135;28;20236;-77
2023/07/29 19:26:23;;;;;;;2.70;2.30;;;23.50;44.20;;;;;;10419893;28;20247;-76
2023/07/29 19:31:26;;;;;;;2.20;2.00;;;23.50;44.40;;;;;;10418719;28;20362;-76
2023/07/29 19:36:31;;;;;;;2.50;2.30;;;23.50;44.40;;;;;;10431935;28;20260;-76
2023/07/29 19:41:37;;;;;;;2.97;2.10;;;23.40;44.40;;;;;;10421734;28;20231;-76
2023/07/29 19:46:41;;;;;;;2.23;2.13;;;23.50;44.40;;;;;;10421010;28;20233;-75
2023/07/29 19:51:44;;;;;;;2.60;2.40;;;23.50;44.20;;;;;;10418040;28;20230;-76
2023/07/29 19:56:48;;;;;;;2.60;2.40;;;23.50;44.20;;;;;;10425371;28;20232;-76
2023/07/29 20:01:52;;;;;;;2.50;2.30;;;23.50;44.20;;;;;;10427184;28;20228;-76
2023/07/29 20:06:56;;;;;;;2.43;2.27;;;23.50;44.20;;;;;;10424463;28;20225;-75
2023/07/29 20:12:01;;;;;;;2.60;2.40;;;23.50;44.10;;;;;;10427283;28;20247;-75
2023/07/29 20:17:09;;;;;;;2.43;2.23;;;23.50;44.20;;;;;;10464011;28;20256;-76
2023/07/29 20:22:12;;;;;;;2.47;2.27;;;23.50;44.30;;;;;;10466011;28;20231;-77
2023/07/29 20:27:17;;;;;;;2.47;2.27;;;23.50;44.10;;;;;;10467329;28;20271;-76
2023/07/29 20:32:21;;;;;;;2.77;2.17;;;23.40;44.20;;;;;;10464814;28;20239;-76
2023/07/29 20:37:24;;;;;;;3.30;2.43;;;23.50;44.30;;;;;;10464347;28;20235;-76
2023/07/29 20:42:29;;;;;;;2.70;2.50;;;23.50;44.20;;;;;;10469819;28;20254;-74
2023/07/29 20:47:36;;;;;;;2.80;2.60;;;23.40;44.10;;;;;;10476380;28;20319;-75
2023/07/29 20:52:39;;;;;;;2.97;2.40;;;23.40;44.30;;;;;;10484291;28;20251;-74
2023/07/29 20:57:44;;;;;;;2.63;2.43;;;23.40;44.40;;;;;;10491853;28;20311;-74
2023/07/29 21:02:47;;;;;;;2.67;2.47;;;23.40;44.40;;;;;;10485984;28;20234;-74
2023/07/29 21:07:51;;;;;;;2.63;2.30;;;23.50;44.20;;;;;;10491931;28;20228;-74
2023/07/29 21:12:58;;;;;;;2.90;2.70;;;23.40;44.20;;;;;;10489073;28;20234;-76
2023/07/29 21:18:03;;;;;;;2.70;2.50;;;23.40;44.70;;;;;;10489101;28;20319;-75
2023/07/29 21:23:07;;;;;;;2.60;2.40;;;23.30;44.60;;;;;;10488463;28;20227;-74
2023/07/29 21:28:11;;;;;;;2.80;2.60;;;23.30;44.60;;;;;;10487911;28;20307;-75
2023/07/29 21:33:15;;;;;;;3.03;2.47;;;23.30;44.70;;;;;;10490369;28;20227;-75
2023/07/29 21:38:18;;;;;;;2.43;2.33;;;23.30;44.60;;;;;;10487016;28;20229;-75
2023/07/29 21:43:30;;;;;;;2.73;2.53;;;23.30;44.80;;;;;;10490133;28;20238;-75
2023/07/29 21:48:33;;;;;;;2.70;2.50;;;23.20;44.90;;;;;;10489803;28;20258;-75
2023/07/29 21:53:36;;;;;;;2.97;2.70;;;23.20;44.80;;;;;;10482511;28;20233;-75
2023/07/29 21:58:41;;;;;;;2.90;2.60;;;23.10;45.00;;;;;;10486928;28;20239;-75
2023/07/29 22:03:44;;;;;;;3.00;2.80;;;23.10;45.20;;;;;;10488604;28;20250;-76
2023/07/29 22:08:49;;;;;;;2.80;2.60;;;23.10;45.20;;;;;;10490067;28;20258;-75
2023/07/29 22:13:54;;;;;;;2.87;2.67;;;23.10;45.40;;;;;;10488432;28;20236;-75
2023/07/29 22:18:57;;;;;;;3.00;2.63;;;23.10;45.60;;;;;;10483786;28;20319;-75
2023/07/29 22:24:00;;;;;;;2.63;2.43;;;23.10;45.40;;;;;;10490854;28;20579;-75
2023/07/29 22:29:05;;;;;;;2.50;2.30;;;23.10;45.40;;;;;;10451599;28;20315;-75
2023/07/29 22:34:08;;;;;;;2.40;2.20;;;23.10;45.60;;;;;;10443448;28;20667;-75
2023/07/29 22:39:11;;;;;;;2.90;2.70;;;23.00;45.60;;;;;;10443562;28;20240;-75
2023/07/29 22:44:15;;;;;;;2.47;2.37;;;22.90;45.50;;;;;;10446372;28;20239;-76
2023/07/29 22:49:19;;;;;;;3.00;2.80;;;22.90;45.70;;;;;;10446794;28;20236;-76
2023/07/29 22:54:22;;;;;;;3.40;2.70;;;22.90;45.60;;;;;;10452289;28;20237;-75
2023/07/29 22:59:26;;;;;;;3.57;2.70;;;22.80;45.60;;;;;;10448129;28;20239;-75
2023/07/29 23:04:29;;;;;;;3.30;2.50;;;22.80;45.80;;;;;;10458093;28;20324;-75
2023/07/29 23:09:33;;;;;;;2.73;2.53;;;22.80;45.60;;;;;;10443784;28;20324;-75
2023/07/29 23:14:37;;;;;;;2.80;2.53;;;22.80;45.80;;;;;;10439852;28;20233;-75
2023/07/29 23:19:40;;;;;;;2.50;2.33;;;22.80;46.00;;;;;;10445735;28;20235;-75
2023/07/29 23:24:43;;;;;;;2.90;2.70;;;22.80;45.60;;;;;;10455647;28;20614;-75
2023/07/29 23:29:48;;;;;;;2.70;2.50;;;22.80;45.70;;;;;;10442056;28;20658;-75
2023/07/29 23:34:51;;;;;;;2.80;2.60;;;22.80;46.00;;;;;;10453501;28;20221;-76
2023/07/29 23:39:55;;;;;;;2.53;2.33;;;22.80;45.80;;;;;;10465920;28;20229;-75
2023/07/29 23:44:59;;;;;;;2.57;2.37;;;22.80;46.40;;;;;;10471167;28;20234;-75
2023/07/29 23:50:03;;;;;;;2.80;2.60;;;22.80;45.80;;;;;;10448157;28;20597;-75
2023/07/29 23:55:07;;;;;;;2.00;1.90;;;22.80;45.70;;;;;;10464308;28;20231;-75
